Time;durP1;ratioP1;P1;durP2;ratioP2;P2;SDS_P1;SDS_P2;PMS_P1;PMS_P2;Temp;Humidity;BMP_temperature;BMP_pressure;BME280_temperature;BME280_humidity;BME280_pressure;Samples;Min_cycle;Max_cycle;Signal;HPM_P1;HPM_P2
2022/03/18 00:00:40;;;;;;;74.40;53.22;;;8.00;76.20;;;6.07;83.61;97378.31;4968576;28;20059;-71
2022/03/18 00:03:05;;;;;;;69.55;50.90;;;7.90;76.20;;;6.03;82.98;97377.72;4971439;28;20039;-69
2022/03/18 00:05:34;;;;;;;75.55;51.42;;;7.90;76.30;;;6.03;83.24;97382.13;4987056;28;20439;-69
2022/03/18 00:08:00;;;;;;;70.80;49.72;;;7.90;76.30;;;6.01;83.71;97374.44;4972070;28;20063;-71
2022/03/18 00:10:26;;;;;;;69.07;50.05;;;7.90;76.40;;;6.00;83.28;97378.00;4968461;28;20045;-70
2022/03/18 00:12:52;;;;;;;69.72;49.45;;;7.80;76.50;;;5.97;84.10;97383.47;4981228;28;20026;-72
2022/03/18 00:15:18;;;;;;;64.68;48.13;;;7.80;76.50;;;5.96;83.33;97386.22;4971427;28;20049;-69
2022/03/18 00:17:44;;;;;;;68.80;48.85;;;7.80;76.50;;;5.93;83.83;97382.09;4972145;28;20034;-70
2022/03/18 00:20:12;;;;;;;65.20;48.83;;;7.80;76.50;;;5.92;83.99;97388.28;4955588;28;20091;-70
2022/03/18 00:22:40;;;;;;;68.75;49.13;;;7.80;76.50;;;5.89;83.39;97380.66;4972771;28;20035;-70
2022/03/18 00:25:06;;;;;;;67.05;48.10;;;7.70;76.50;;;5.88;84.29;97378.16;4970630;28;20065;-71
2022/03/18 00:27:32;;;;;;;72.85;49.33;;;7.70;76.50;;;5.85;83.25;97387.91;4972120;28;20161;-71
2022/03/18 00:29:58;;;;;;;69.97;49.10;;;7.70;76.50;;;5.83;84.22;97386.38;4969092;28;20031;-71
2022/03/18 00:32:23;;;;;;;66.88;49.55;;;7.70;76.40;;;5.82;83.29;97382.09;4970591;28;20093;-69
2022/03/18 00:34:49;;;;;;;69.18;48.83;;;7.60;76.50;;;5.78;83.83;97388.53;4971066;28;20110;-69
2022/03/18 00:37:15;;;;;;;67.10;47.65;;;7.60;76.50;;;5.76;83.24;97385.25;4970121;28;20728;-71
2022/03/18 00:39:41;;;;;;;65.22;48.97;;;7.60;76.50;;;5.72;83.44;97386.47;4950546;28;20035;-71
2022/03/18 00:42:07;;;;;;;67.28;50.60;;;7.60;76.60;;;5.70;84.27;97386.59;4936492;28;20122;-71
2022/03/18 00:44:33;;;;;;;71.32;50.65;;;7.50;76.60;;;5.67;83.71;97386.00;4967244;28;20042;-70
2022/03/18 00:46:58;;;;;;;66.18;47.72;;;7.50;76.70;;;5.64;83.98;97381.03;4964235;28;20035;-70
2022/03/18 00:52:10;;;;;;;62.10;46.42;;;7.50;76.50;;;5.57;83.72;97391.16;4968511;28;20033;-70
2022/03/18 00:54:40;;;;;;;66.70;46.78;;;7.40;76.60;;;5.55;84.36;97390.44;4960144;28;20499;-71
2022/03/18 00:57:06;;;;;;;65.35;49.03;;;7.40;76.50;;;5.51;83.90;97387.25;4965989;28;20043;-72
2022/03/18 00:59:32;;;;;;;65.95;47.72;;;7.40;76.60;;;5.48;84.04;97392.75;4982156;28;20502;-71
2022/03/18 01:01:58;;;;;;;69.95;50.35;;;7.30;76.80;;;5.44;83.71;97386.13;4966849;28;20034;-71
2022/03/18 01:04:24;;;;;;;65.00;48.97;;;7.30;76.90;;;5.44;84.18;97391.34;4950527;28;20047;-71
2022/03/18 01:06:52;;;;;;;67.88;47.47;;;7.30;76.80;;;5.40;83.62;97384.69;4966070;28;20063;-71
2022/03/18 01:09:18;;;;;;;71.10;49.35;;;7.20;76.80;;;5.39;84.09;97383.03;4949641;28;20049;-70
2022/03/18 01:11:43;;;;;;;64.20;47.17;;;7.20;76.90;;;5.38;84.50;97391.81;4975513;28;20062;-70
2022/03/18 01:14:09;;;;;;;70.28;49.13;;;7.20;76.90;;;5.36;83.61;97390.28;4975597;28;20035;-71
2022/03/18 01:16:35;;;;;;;64.60;47.97;;;7.20;76.80;;;5.33;84.21;97386.16;4980528;28;20055;-71
2022/03/18 01:19:01;;;;;;;69.47;48.70;;;7.20;76.90;;;5.31;84.38;97382.84;4981595;28;20034;-71
2022/03/18 01:21:27;;;;;;;68.07;47.80;;;7.10;77.10;;;5.30;84.31;97385.56;4953039;28;20039;-71
2022/03/18 01:23:53;;;;;;;70.07;49.25;;;7.10;77.10;;;5.28;84.82;97396.13;4967102;28;20611;-70
2022/03/18 01:26:18;;;;;;;65.75;48.28;;;7.20;77.10;;;5.27;84.48;97391.88;4963177;28;20561;-71
2022/03/18 01:28:44;;;;;;;66.47;46.92;;;7.10;77.30;;;5.27;84.10;97394.50;4949271;28;20078;-70
2022/03/18 01:31:10;;;;;;;69.72;50.08;;;7.10;77.40;;;5.25;84.52;97391.19;4966304;28;20530;-71
2022/03/18 01:33:37;;;;;;;70.80;50.50;;;7.10;77.60;;;5.23;84.48;97393.09;4962492;28;20026;-71
2022/03/18 01:36:04;;;;;;;70.03;48.88;;;7.10;77.70;;;5.22;85.28;97394.03;4964611;28;20045;-71
2022/03/18 01:38:30;;;;;;;69.70;50.80;;;7.10;78.00;;;5.21;85.06;97395.00;4963916;28;20089;-71
2022/03/18 01:40:55;;;;;;;74.57;50.03;;;7.10;78.10;;;5.20;85.31;97398.53;4981316;28;20113;-71
2022/03/18 01:43:21;;;;;;;70.25;51.03;;;7.10;78.20;;;5.20;84.88;97406.34;4967482;28;20162;-70
2022/03/18 01:45:47;;;;;;;70.43;50.20;;;7.10;78.30;;;5.18;85.21;97405.63;4984782;28;20520;-70
2022/03/18 01:48:14;;;;;;;69.93;49.03;;;7.10;78.40;;;5.18;85.31;97405.63;4982330;28;20453;-69
2022/03/18 01:50:41;;;;;;;74.47;50.20;;;7.10;78.50;;;5.17;85.94;97401.38;4933728;28;20046;-69
2022/03/18 01:53:07;;;;;;;69.57;50.65;;;7.10;78.50;;;5.19;85.71;97396.88;4965242;28;20038;-71
2022/03/18 01:55:32;;;;;;;68.60;49.67;;;7.10;78.50;;;5.18;85.66;97397.81;4977453;28;20174;-71
2022/03/18 01:57:58;;;;;;;73.68;49.53;;;7.10;78.40;;;5.18;85.69;97393.44;4983026;28;20109;-69
2022/03/18 02:00:24;;;;;;;71.22;48.00;;;7.10;78.40;;;5.19;85.58;97394.25;4967379;28;20054;-70
2022/03/18 02:02:51;;;;;;;66.68;48.08;;;7.10;78.50;;;5.20;86.31;97398.53;4966303;28;20039;-69
2022/03/18 02:05:18;;;;;;;69.25;49.60;;;7.10;78.40;;;5.21;85.62;97397.59;4967111;28;20043;-70
2022/03/18 02:07:45;;;;;;;66.90;48.38;;;7.10;78.20;;;5.22;85.80;97399.25;4968801;28;20039;-69
2022/03/18 02:10:10;;;;;;;64.35;47.38;;;7.10;78.10;;;5.22;85.79;97396.66;4964528;28;20050;-69
2022/03/18 02:12:36;;;;;;;67.40;47.90;;;7.10;78.20;;;5.23;86.42;97393.09;4968085;28;20081;-70
2022/03/18 02:15:03;;;;;;;62.75;46.67;;;7.10;78.10;;;5.23;86.30;97399.13;4966438;28;20396;-71
2022/03/18 02:17:29;;;;;;;67.72;48.47;;;7.20;78.20;;;5.24;85.50;97402.56;4982200;28;20027;-71
2022/03/18 02:19:55;;;;;;;66.32;47.03;;;7.20;78.00;;;5.23;85.51;97406.13;4984078;28;20172;-71
2022/03/18 02:22:25;;;;;;;66.45;47.63;;;7.20;77.90;;;5.26;86.72;97408.47;4965771;28;20035;-71
2022/03/18 02:24:52;;;;;;;68.72;47.08;;;7.20;77.80;;;5.26;86.25;97403.25;4981468;28;20038;-69
2022/03/18 02:27:19;;;;;;;64.97;47.13;;;7.20;77.70;;;5.28;85.64;97413.56;4932811;28;20034;-69
2022/03/18 02:29:44;;;;;;;62.75;46.85;;;7.20;77.60;;;5.28;85.69;97411.78;4983753;28;20046;-69
2022/03/18 02:32:10;;;;;;;61.08;46.60;;;7.20;77.60;;;5.29;85.79;97416.06;4948023;28;20049;-69
2022/03/18 02:34:38;;;;;;;65.07;46.45;;;7.20;77.50;;;5.28;86.17;97411.78;4966552;28;20046;-69
2022/03/18 02:37:04;;;;;;;61.00;45.30;;;7.20;77.60;;;5.31;85.65;97414.16;4966611;28;20047;-69
2022/03/18 02:39:30;;;;;;;62.42;45.28;;;7.20;77.50;;;5.31;86.10;97416.75;4966942;28;20046;-70
2022/03/18 02:41:56;;;;;;;61.85;44.83;;;7.20;77.40;;;5.30;85.65;97415.09;4967268;28;20041;-70
2022/03/18 02:44:22;;;;;;;62.97;44.47;;;7.30;77.30;;;5.31;86.31;97414.16;4966120;28;20550;-71
2022/03/18 02:46:48;;;;;;;60.42;43.53;;;7.30;77.20;;;5.31;85.44;97413.31;4966865;28;20035;-70
2022/03/18 02:49:13;;;;;;;61.20;44.30;;;7.20;77.30;;;5.28;85.08;97409.19;4964383;28;20097;-70
2022/03/18 02:51:39;;;;;;;61.67;45.15;;;7.20;77.30;;;5.28;86.08;97411.78;4967313;28;20054;-70
2022/03/18 02:54:05;;;;;;;60.92;45.33;;;7.20;77.30;;;5.28;86.17;97414.41;4964388;28;20070;-69
2022/03/18 02:56:31;;;;;;;65.13;46.20;;;7.20;77.30;;;5.28;85.35;97416.19;4967597;28;20065;-69
2022/03/18 02:58:57;;;;;;;60.35;43.85;;;7.20;77.30;;;5.27;85.88;97409.31;4951247;28;20030;-70
2022/03/18 03:01:22;;;;;;;58.75;44.33;;;7.10;77.30;;;5.24;85.98;97413.00;4965432;28;20546;-70
2022/03/18 03:03:48;;;;;;;61.10;44.75;;;7.10;77.30;;;5.22;85.14;97413.13;4965304;28;20174;-70
2022/03/18 03:08:58;;;;;;;62.30;44.92;;;7.10;77.30;;;5.19;85.38;97410.72;4962822;28;20105;-70
2022/03/18 03:11:24;;;;;;;59.90;44.00;;;7.10;77.30;;;5.18;85.42;97414.28;4962815;28;20074;-70
2022/03/18 03:13:50;;;;;;;60.22;43.05;;;7.10;77.30;;;5.18;85.27;97422.13;4981245;28;20913;-70
2022/03/18 03:16:16;;;;;;;61.60;43.90;;;7.10;77.30;;;5.17;86.06;97419.63;4963921;28;20143;-70
2022/03/18 03:18:42;;;;;;;60.70;44.53;;;7.10;77.40;;;5.17;85.87;97419.63;4966141;28;20027;-70
2022/03/18 03:21:07;;;;;;;109.40;78.07;;;7.10;77.40;;;5.14;85.36;97423.31;4980016;28;20062;-70
2022/03/18 03:23:33;;;;;;;87.10;61.85;;;7.10;77.60;;;5.14;85.50;97422.50;4964531;28;20466;-70
2022/03/18 03:25:59;;;;;;;82.50;58.70;;;7.10;77.50;;;5.14;85.24;97440.75;4982530;28;20058;-70
2022/03/18 03:28:24;;;;;;;68.03;48.33;;;7.10;77.70;;;5.14;85.61;97432.94;4967389;28;20046;-70
2022/03/18 03:30:50;;;;;;;117.30;78.28;;;7.10;77.70;;;5.14;85.55;97435.53;4966661;28;20046;-70
2022/03/18 03:33:17;;;;;;;170.43;114.22;;;7.10;77.50;;;5.13;85.73;97439.94;4965624;28;20128;-71
2022/03/18 03:35:43;;;;;;;88.68;62.35;;;7.10;77.50;;;5.12;85.50;97445.25;4962647;28;20042;-69
2022/03/18 03:38:15;;;;;;;64.35;46.17;;;7.10;77.40;;;5.11;85.92;97447.03;4949077;28;20070;-69
2022/03/18 03:40:42;;;;;;;62.00;43.17;;;7.10;77.30;;;5.09;84.98;97454.16;4981798;28;20031;-69
2022/03/18 03:43:08;;;;;;;61.60;43.65;;;7.00;77.20;;;5.07;85.41;97455.25;4965178;28;20031;-69
2022/03/18 03:45:38;;;;;;;61.47;43.15;;;6.90;77.40;;;5.03;85.57;97454.66;4964213;28;20514;-70
2022/03/18 03:48:05;;;;;;;59.10;42.72;;;6.90;77.40;;;5.01;86.06;97458.34;4964114;28;20035;-70
2022/03/18 03:50:31;;;;;;;59.60;42.70;;;6.90;77.40;;;4.98;85.82;97463.78;4963334;28;20059;-70
2022/03/18 03:52:56;;;;;;;58.72;41.08;;;6.80;77.60;;;4.95;84.99;97467.44;4981118;28;20069;-69
2022/03/18 03:55:22;;;;;;;62.72;42.83;;;6.80;77.70;;;4.92;85.82;97470.31;4963316;28;20043;-69
2022/03/18 03:57:48;;;;;;;85.55;57.95;;;6.80;77.60;;;4.90;86.08;97473.03;4966592;28;20117;-70
2022/03/18 04:00:14;;;;;;;83.75;60.20;;;6.80;77.80;;;4.89;86.03;97473.97;4963275;28;20110;-70
2022/03/18 04:02:41;;;;;;;134.95;99.28;;;6.80;78.00;;;4.88;86.24;97476.72;4951324;28;20037;-70
2022/03/18 04:05:08;;;;;;;244.35;163.98;;;6.80;77.90;;;4.88;85.52;97477.53;4964143;28;20035;-70
2022/03/18 04:07:37;;;;;;;116.38;84.22;;;6.80;78.10;;;4.86;86.28;97481.22;4948712;28;20041;-70
2022/03/18 04:10:04;;;;;;;113.47;80.88;;;6.80;78.00;;;4.84;85.89;97481.34;4965311;28;20039;-70
2022/03/18 04:12:32;;;;;;;72.32;51.50;;;6.80;77.90;;;4.84;86.60;97483.94;4972313;28;20039;-69
2022/03/18 04:14:59;;;;;;;60.53;43.25;;;6.80;77.90;;;4.83;86.35;97484.06;4949560;28;20027;-70
2022/03/18 04:17:26;;;;;;;58.97;42.60;;;6.80;77.80;;;4.83;86.29;97489.28;4985392;28;20433;-70
2022/03/18 04:19:53;;;;;;;61.08;42.03;;;6.70;77.80;;;4.82;86.58;97492.84;4968157;28;20454;-70
2022/03/18 04:22:22;;;;;;;59.63;43.00;;;6.70;78.10;;;4.82;86.79;97504.09;4970812;28;20117;-69
2022/03/18 04:24:47;;;;;;;65.40;44.25;;;6.70;78.20;;;4.81;86.09;97497.22;4967769;28;20034;-69
2022/03/18 04:27:13;;;;;;;59.70;41.55;;;6.70;78.30;;;4.82;85.92;97504.09;4983082;28;20490;-70
2022/03/18 04:29:39;;;;;;;57.00;42.00;;;6.70;78.30;;;4.82;87.04;97504.09;4984542;28;20402;-70
2022/03/18 04:32:05;;;;;;;70.18;49.58;;;6.80;78.40;;;4.84;87.10;97507.41;4977694;28;20055;-73
2022/03/18 04:34:31;;;;;;;65.95;46.55;;;6.80;78.80;;;4.86;87.28;97510.72;4964252;28;20574;-69
2022/03/18 04:36:56;;;;;;;59.47;42.33;;;6.90;78.60;;;4.87;86.56;97509.78;4964411;28;20062;-73
2022/03/18 04:39:22;;;;;;;60.30;44.03;;;6.80;78.10;;;4.86;87.07;97508.13;4968882;28;20043;-71
2022/03/18 04:41:48;;;;;;;59.53;42.30;;;6.80;78.10;;;4.88;86.55;97519.25;4969626;28;20058;-71
2022/03/18 04:44:14;;;;;;;60.38;41.55;;;6.90;78.20;;;4.89;86.95;97513.09;4968541;28;20034;-70
2022/03/18 04:46:39;;;;;;;56.28;41.42;;;6.90;78.00;;;4.89;87.28;97520.91;4968772;28;20534;-69
2022/03/18 04:49:05;;;;;;;55.40;41.55;;;6.80;78.10;;;4.90;87.08;97517.34;4970470;28;20173;-70
2022/03/18 04:51:31;;;;;;;58.67;42.92;;;6.80;78.30;;;4.90;86.63;97519.97;4953054;28;20518;-70
2022/03/18 04:53:57;;;;;;;56.97;42.15;;;6.80;78.10;;;4.89;87.19;97531.34;4970085;28;20039;-70
2022/03/18 04:59:08;;;;;;;54.45;41.08;;;6.80;78.20;;;4.87;87.06;97527.19;4979984;28;20076;-71
2022/03/18 05:01:34;;;;;;;60.67;43.00;;;6.90;78.10;;;4.86;86.80;97528.97;4954223;28;20558;-71
2022/03/18 05:03:59;;;;;;;60.95;42.30;;;6.90;78.10;;;4.86;87.12;97531.59;4969679;28;20519;-70
2022/03/18 05:06:26;;;;;;;57.65;41.88;;;6.90;78.10;;;4.87;86.62;97533.25;4964696;28;20050;-70
2022/03/18 05:08:52;;;;;;;59.03;41.88;;;6.80;78.20;;;4.87;86.41;97533.25;4969620;28;20034;-70
2022/03/18 05:11:17;;;;;;;59.22;42.15;;;6.80;78.10;;;4.87;86.39;97543.66;4968357;28;20470;-70
2022/03/18 05:13:44;;;;;;;61.50;41.67;;;6.80;78.20;;;4.88;86.42;97537.50;4969407;28;20039;-70
2022/03/18 05:16:10;;;;;;;61.25;42.92;;;6.80;78.20;;;4.87;87.15;97537.63;4984254;28;20038;-70
2022/03/18 05:18:36;;;;;;;61.45;42.78;;;6.80;78.20;;;4.87;87.41;97548.88;4984652;28;20531;-69
2022/03/18 05:21:01;;;;;;;59.72;42.38;;;6.80;78.30;;;4.88;86.97;97540.13;4969389;28;20042;-69
2022/03/18 05:23:27;;;;;;;61.35;43.13;;;6.80;78.30;;;4.87;87.25;97546.28;4967004;28;20529;-69
2022/03/18 05:25:53;;;;;;;58.28;41.55;;;6.80;78.30;;;4.87;87.19;97546.28;4967796;28;20054;-70
2022/03/18 05:28:18;;;;;;;58.92;41.80;;;6.80;78.10;;;4.86;87.19;97552.44;4969969;28;20050;-70
2022/03/18 05:30:44;;;;;;;61.17;43.13;;;6.80;78.30;;;4.86;86.65;97565.47;4968833;28;20039;-70
2022/03/18 05:33:10;;;;;;;60.20;42.72;;;6.80;78.30;;;4.87;86.98;97580.19;4945722;28;20519;-69
2022/03/18 05:35:36;;;;;;;57.17;43.00;;;6.90;78.30;;;4.87;86.93;97563.69;4969092;28;20035;-70
2022/03/18 05:38:02;;;;;;;58.35;42.67;;;6.90;78.30;;;4.88;87.50;97579.22;4969765;28;20552;-72
2022/03/18 05:40:27;;;;;;;55.25;39.38;;;6.90;78.30;;;4.90;87.27;97579.09;4980813;28;20654;-75
2022/03/18 05:42:53;;;;;;;53.45;38.55;;;7.00;77.70;;;4.93;87.59;97579.69;4937251;28;20125;-73
2022/03/18 05:45:19;;;;;;;51.83;37.95;;;7.00;77.50;;;4.93;86.24;97577.09;4968926;28;20065;-69
2022/03/18 05:47:45;;;;;;;54.15;37.33;;;6.90;77.60;;;4.95;86.82;97570.91;4971451;28;20074;-72
2022/03/18 05:50:15;;;;;;;58.45;39.33;;;7.00;77.30;;;4.97;86.78;97579.47;4965206;28;20051;-70
2022/03/18 05:52:41;;;;;;;52.90;37.72;;;7.00;77.20;;;4.97;86.08;97580.28;4967926;28;20027;-71
2022/03/18 05:55:07;;;;;;;50.72;36.60;;;7.00;76.80;;;5.00;86.06;97580.06;4968294;28;20522;-70
2022/03/18 05:57:33;;;;;;;49.75;36.97;;;7.00;76.70;;;5.03;85.86;97592.06;4968596;28;20074;-69
2022/03/18 05:59:59;;;;;;;46.85;34.83;;;7.10;76.50;;;5.07;86.47;97590.84;4969428;28;20117;-70
2022/03/18 06:02:25;;;;;;;49.45;37.50;;;7.10;76.30;;;5.08;85.95;97582.09;4967142;28;20035;-72
2022/03/18 06:04:51;;;;;;;51.70;36.63;;;7.10;76.00;;;5.09;85.44;97600.22;4953160;28;20035;-72
2022/03/18 06:07:16;;;;;;;49.25;35.67;;;7.10;75.80;;;5.13;85.03;97606.03;4966373;28;20062;-70
2022/03/18 06:12:28;;;;;;;49.92;36.97;;;7.20;75.60;;;5.20;85.66;97596.78;4965650;28;20106;-67
2022/03/18 06:14:54;;;;;;;47.63;35.30;;;7.30;75.60;;;5.24;85.02;97598.22;4947698;28;20027;-68
2022/03/18 06:17:19;;;;;;;46.60;34.67;;;7.30;75.40;;;5.27;84.72;97591.94;4971982;28;20118;-66
2022/03/18 06:19:45;;;;;;;48.38;35.42;;;7.40;75.00;;;5.32;84.63;97605.44;4929668;28;20031;-66
2022/03/18 06:22:11;;;;;;;47.42;35.08;;;7.40;74.70;;;5.36;84.83;97602.47;4965669;28;20035;-66
2022/03/18 06:24:37;;;;;;;52.08;34.22;;;7.50;74.60;;;5.41;84.06;97608.16;4970528;28;20116;-69
2022/03/18 06:27:03;;;;;;;49.83;36.60;;;7.60;74.20;;;5.47;83.63;97609.47;4966898;28;20557;-67
2022/03/18 06:29:29;;;;;;;47.85;34.60;;;7.60;74.00;;;5.51;83.82;97621.31;4966905;28;20110;-66
2022/03/18 06:31:55;;;;;;;45.85;34.97;;;7.70;73.80;;;5.59;83.34;97618.09;4976593;28;20130;-66
2022/03/18 06:34:21;;;;;;;47.35;35.38;;;7.80;73.30;;;5.65;83.39;97613.22;4965780;28;20043;-67
2022/03/18 06:36:48;;;;;;;47.47;35.22;;;7.90;73.00;;;5.74;83.59;97622.13;4965520;28;20050;-70
2022/03/18 06:39:14;;;;;;;50.53;36.15;;;8.00;72.90;;;5.80;82.94;97622.47;4962358;28;20150;-67
2022/03/18 06:41:39;;;;;;;49.78;37.40;;;8.10;72.80;;;5.88;83.00;97629.69;4946335;28;20920;-65
2022/03/18 06:44:08;;;;;;;48.92;37.00;;;8.20;72.30;;;5.95;82.59;97630.91;4962240;28;20046;-68
2022/03/18 06:46:36;;;;;;;49.72;37.15;;;8.20;71.80;;;6.03;82.15;97638.94;4965977;28;20034;-72
2022/03/18 06:49:01;;;;;;;49.35;37.67;;;8.30;71.30;;;6.12;82.32;97640.00;4957684;28;20028;-69
2022/03/18 06:51:27;;;;;;;49.65;39.47;;;8.40;70.90;;;6.21;81.91;97646.25;4964282;28;20513;-71
2022/03/18 06:53:54;;;;;;;46.92;37.75;;;8.60;70.30;;;6.29;80.90;97643.84;4965480;28;20572;-68
2022/03/18 06:56:20;;;;;;;46.78;37.53;;;8.60;70.10;;;6.36;80.36;97642.41;4964931;28;20216;-70
2022/03/18 06:58:45;;;;;;;50.22;37.17;;;8.60;69.50;;;6.42;80.06;97647.13;4981797;28;20031;-69
2022/03/18 07:01:11;;;;;;;48.47;37.92;;;8.70;69.50;;;6.48;80.22;97649.25;4951370;28;20041;-70
2022/03/18 07:03:37;;;;;;;49.03;38.38;;;8.70;69.30;;;6.53;80.25;97656.72;4933133;28;20073;-73
2022/03/18 07:06:03;;;;;;;47.90;39.10;;;8.70;68.90;;;6.58;79.71;97660.63;4936826;28;20110;-67
2022/03/18 07:08:29;;;;;;;48.42;37.55;;;8.80;68.70;;;6.64;79.07;97659.28;4963565;28;20046;-70
2022/03/18 07:10:54;;;;;;;52.33;39.05;;;8.90;68.30;;;6.68;79.48;97656.28;4966492;28;20550;-69
2022/03/18 07:13:20;;;;;;;47.58;38.70;;;8.90;68.30;;;6.73;78.89;97656.72;4966178;28;20043;-73
2022/03/18 07:15:46;;;;;;;46.92;38.85;;;9.00;68.80;;;6.80;78.97;97666.72;4966867;28;20515;-69
2022/03/18 07:18:11;;;;;;;49.97;37.55;;;9.00;68.60;;;6.85;78.64;97672.38;4961463;28;20087;-68
2022/03/18 07:20:38;;;;;;;47.17;38.75;;;9.10;68.20;;;6.90;78.11;97670.22;4978389;28;20042;-71
2022/03/18 07:23:06;;;;;;;53.03;39.15;;;9.20;67.70;;;6.94;78.06;97671.59;4966248;28;20027;-70
2022/03/18 07:25:33;;;;;;;45.58;38.25;;;9.10;67.60;;;6.97;78.21;97677.41;4980313;28;20061;-70
2022/03/18 07:27:58;;;;;;;45.40;38.22;;;9.10;67.70;;;7.02;77.63;97683.09;4967051;28;20035;-66
2022/03/18 07:30:24;;;;;;;48.00;37.67;;;9.20;67.40;;;7.06;77.92;97675.81;4964231;28;20201;-68
2022/03/18 07:32:50;;;;;;;44.92;37.30;;;9.30;67.40;;;7.10;77.16;97687.69;4964799;28;20051;-67
2022/03/18 07:35:16;;;;;;;46.17;38.13;;;9.40;66.70;;;7.16;76.78;97691.56;4966200;28;20027;-69
2022/03/18 07:37:42;;;;;;;43.60;36.63;;;9.50;66.60;;;7.21;76.83;97692.84;4962325;28;20034;-69
2022/03/18 07:40:11;;;;;;;43.25;36.05;;;9.60;66.00;;;7.24;75.72;97695.22;4965892;28;20594;-70
2022/03/18 07:42:51;;;;;;;41.78;37.20;;;9.50;65.40;;;7.33;74.99;97693.63;4982318;28;20687;-67
2022/03/18 07:45:21;;;;;;;44.22;36.75;;;9.60;65.60;;;7.40;75.56;97694.75;4964587;28;20046;-68
2022/03/18 07:47:50;;;;;;;43.88;36.58;;;9.80;65.60;;;7.48;75.84;97699.34;4980617;28;20057;-67
2022/03/18 07:50:20;;;;;;;42.63;36.72;;;9.90;65.10;;;7.55;75.90;97697.84;4950774;28;20031;-67
2022/03/18 07:52:59;;;;;;;44.07;34.50;;;9.90;65.30;;;7.63;73.83;97700.63;4968674;28;20039;-69
2022/03/18 07:55:26;;;;;;;42.45;34.88;;;10.00;64.00;;;7.68;74.46;97693.22;4954086;28;20062;-68
2022/03/18 07:57:52;;;;;;;43.38;35.17;;;10.10;63.50;;;7.75;74.23;97699.59;4970041;28;20058;-67
2022/03/18 08:00:18;;;;;;;42.08;35.00;;;10.20;63.20;;;7.84;73.84;97698.81;4968515;28;20522;-67
2022/03/18 08:02:45;;;;;;;39.63;33.53;;;10.30;63.10;;;7.90;73.68;97703.50;4969849;28;20073;-67
2022/03/18 08:05:11;;;;;;;40.00;32.90;;;10.50;62.20;;;8.02;72.56;97706.03;4969297;28;20038;-68
2022/03/18 08:07:37;;;;;;;39.90;33.25;;;10.50;61.40;;;8.10;72.52;97708.81;4981146;28;20039;-68
2022/03/18 08:10:04;;;;;;;38.45;32.75;;;10.60;61.00;;;8.19;72.18;97716.72;4969122;28;20389;-68
2022/03/18 08:12:29;;;;;;;40.33;33.35;;;10.70;60.60;;;8.28;71.24;97715.06;4969148;28;20031;-66
2022/03/18 08:14:57;;;;;;;40.17;32.88;;;10.90;59.60;;;8.40;70.74;97716.66;4970146;28;20892;-67
2022/03/18 08:17:23;;;;;;;36.30;32.30;;;11.10;59.10;;;8.53;70.65;97722.44;4967726;28;20412;-69
2022/03/18 08:19:49;;;;;;;39.63;32.03;;;11.30;58.70;;;8.65;70.33;97714.47;4965078;28;20109;-68
2022/03/18 08:22:15;;;;;;;40.60;32.38;;;11.50;57.70;;;8.78;69.23;97725.50;4969517;28;20039;-68
2022/03/18 08:24:41;;;;;;;39.00;32.20;;;11.60;57.70;;;8.92;69.74;97730.34;4952285;28;20109;-68
2022/03/18 08:27:07;;;;;;;36.65;31.23;;;11.80;57.60;;;9.05;68.53;97727.44;4954482;28;20039;-68
2022/03/18 08:29:32;;;;;;;37.38;30.85;;;12.00;56.40;;;9.20;68.30;97740.00;4967893;28;20055;-67
2022/03/18 08:31:58;;;;;;;38.55;30.52;;;12.20;55.60;;;9.33;67.66;97736.25;4969588;28;20101;-68
2022/03/18 08:34:24;;;;;;;35.58;30.63;;;12.40;54.60;;;9.47;67.31;97741.06;4968503;28;20046;-69
2022/03/18 08:36:50;;;;;;;37.42;30.85;;;12.50;54.60;;;9.63;66.96;97738.66;4970224;28;20118;-66
2022/03/18 08:39:15;;;;;;;35.70;30.05;;;12.70;54.00;;;9.79;67.27;97738.91;4968836;28;20574;-69
2022/03/18 08:41:41;;;;;;;34.97;28.67;;;13.10;52.60;;;9.94;65.76;97731.34;4968584;28;20111;-70
2022/03/18 08:44:07;;;;;;;33.40;28.42;;;13.10;51.40;;;10.09;65.58;97742.22;4966150;28;20154;-70
2022/03/18 08:46:34;;;;;;;32.75;28.17;;;13.50;50.80;;;10.27;64.51;97734.44;4981278;28;21410;-66
2022/03/18 08:49:00;;;;;;;34.83;28.05;;;13.70;49.10;;;10.46;64.48;97746.66;4951454;28;20426;-68
2022/03/18 08:51:26;;;;;;;32.25;27.13;;;13.80;49.00;;;10.64;62.33;97745.72;4969093;28;20046;-67
2022/03/18 08:53:51;;;;;;;33.58;26.55;;;14.10;48.60;;;10.83;62.81;97743.88;4969800;28;20114;-67
2022/03/18 08:56:17;;;;;;;29.98;26.50;;;14.20;47.90;;;10.99;62.13;97744.88;4966980;28;20070;-66
2022/03/18 08:58:43;;;;;;;31.15;27.27;;;14.40;46.80;;;11.17;61.78;97741.41;4978480;28;20053;-66
2022/03/18 09:01:09;;;;;;;33.15;26.35;;;14.80;46.60;;;11.40;61.17;97747.84;4962737;28;20038;-69
2022/03/18 09:03:34;;;;;;;29.02;25.70;;;15.10;45.70;;;11.62;60.16;97746.50;4951545;28;20080;-66
2022/03/18 09:06:00;;;;;;;29.23;25.88;;;15.50;45.00;;;11.85;59.75;97750.31;4966026;28;20051;-68
2022/03/18 09:08:26;;;;;;;29.17;25.55;;;15.60;43.80;;;12.10;59.14;97739.88;4968164;28;20038;-68
2022/03/18 09:10:52;;;;;;;32.17;26.80;;;16.10;43.20;;;12.38;58.79;97749.22;4963540;28;20482;-64
2022/03/18 09:13:17;;;;;;;31.38;25.15;;;16.40;43.30;;;12.68;58.46;97752.31;4967387;28;20087;-65
2022/03/18 09:15:44;;;;;;;28.38;24.65;;;16.70;42.10;;;12.94;57.35;97754.81;4952311;28;20156;-68
2022/03/18 09:18:10;;;;;;;28.13;23.77;;;17.10;41.20;;;13.10;56.55;97760.09;4967633;28;20417;-65
2022/03/18 09:20:35;;;;;;;34.80;24.65;;;17.00;39.80;;;13.25;56.00;97762.97;4965688;28;20043;-66
2022/03/18 09:23:01;;;;;;;27.52;23.67;;;17.10;39.80;;;13.38;55.03;97766.78;4966266;28;20034;-66
2022/03/18 09:25:27;;;;;;;29.02;23.70;;;17.20;40.80;;;13.57;54.22;97762.13;4965481;28;20042;-68
2022/03/18 09:27:53;;;;;;;30.17;24.88;;;17.30;39.70;;;13.67;53.77;97765.44;4980222;28;20120;-65
2022/03/18 09:30:18;;;;;;;27.38;24.08;;;17.20;39.60;;;13.75;53.97;97770.69;4983364;28;20047;-66
2022/03/18 09:32:44;;;;;;;27.65;23.52;;;17.20;39.80;;;13.71;52.36;97769.38;4968184;28;20512;-65
2022/03/18 09:35:11;;;;;;;29.55;23.20;;;17.10;39.00;;;13.68;52.66;97769.72;4980192;28;20039;-65
2022/03/18 09:37:37;;;;;;;27.88;24.77;;;17.10;39.10;;;13.68;51.58;97770.53;4952647;28;20035;-66
2022/03/18 09:40:05;;;;;;;29.35;23.80;;;17.30;39.00;;;13.83;52.58;97762.75;4950192;28;20118;-66
2022/03/18 09:42:32;;;;;;;28.02;23.20;;;17.60;38.40;;;14.04;51.58;97776.28;4952219;28;20035;-67
2022/03/18 09:44:58;;;;;;;29.25;25.33;;;17.60;38.20;;;14.24;50.16;97771.38;4968296;28;20027;-66
2022/03/18 09:47:23;;;;;;;27.92;23.42;;;18.10;38.30;;;14.47;51.58;97771.50;4971193;28;20035;-71
2022/03/18 09:49:49;;;;;;;26.75;23.70;;;18.60;37.40;;;14.75;50.63;97768.41;4949269;28;20031;-67
2022/03/18 09:52:15;;;;;;;26.50;23.48;;;19.40;36.10;;;15.07;49.92;97772.66;4966649;28;20078;-69
2022/03/18 09:54:41;;;;;;;26.55;23.30;;;20.10;35.40;;;15.48;50.37;97765.22;4966023;28;20471;-70
2022/03/18 09:57:06;;;;;;;29.35;22.55;;;20.50;34.60;;;15.89;49.32;97763.06;4978009;28;20031;-69
2022/03/18 09:59:32;;;;;;;25.83;22.75;;;21.40;32.80;;;16.31;48.56;97767.72;4963040;28;20062;-66
2022/03/18 10:02:30;;;;;;;23.95;21.35;;;22.30;32.60;;;16.84;43.50;97774.53;4967152;28;20431;-66
2022/03/18 10:05:14;;;;;;;26.23;21.67;;;22.70;30.20;;;17.31;43.08;97767.03;4977461;28;20035;-66
2022/03/18 10:07:51;;;;;;;27.60;23.08;;;23.40;29.30;;;17.64;47.09;97780.63;4967213;28;20061;-66
2022/03/18 10:10:17;;;;;;;24.33;20.05;;;23.20;28.90;;;18.00;45.21;97777.88;4980461;28;20114;-66
2022/03/18 10:12:45;;;;;;;23.95;20.27;;;23.60;27.70;;;18.30;44.14;97775.78;4967939;28;20530;-66
2022/03/18 10:15:16;;;;;;;22.73;20.13;;;23.60;28.00;;;18.49;42.03;97783.06;4980675;28;20045;-67
2022/03/18 10:17:45;;;;;;;27.20;21.10;;;23.40;27.90;;;18.47;41.70;97776.28;4965364;28;20027;-67
2022/03/18 10:20:30;;;;;;;23.17;19.25;;;23.40;27.00;;;18.51;37.63;97772.19;4979093;28;20418;-66
2022/03/18 10:23:03;;;;;;;24.27;19.70;;;23.90;26.10;;;18.68;38.15;97776.22;4967008;28;20027;-66